sensor_id;sensor_type;location;lat;lon;timestamp;P1;durP1;ratioP1;P2;durP2;ratioP2
209;SDS011;90;48.810;9.120;2022-08-11T00:02:26;5.17;;;4.37;;
209;SDS011;90;48.810;9.120;2022-08-11T00:05:00;4.30;;;4.00;;
209;SDS011;90;48.810;9.120;2022-08-11T00:07:32;4.70;;;4.40;;
209;SDS011;90;48.810;9.120;2022-08-11T00:10:08;4.80;;;4.50;;
209;SDS011;90;48.810;9.120;2022-08-11T00:12:39;5.93;;;4.30;;
209;SDS011;90;48.810;9.120;2022-08-11T00:15:08;5.87;;;4.87;;
209;SDS011;90;48.810;9.120;2022-08-11T00:17:36;6.20;;;4.50;;
209;SDS011;90;48.810;9.120;2022-08-11T00:20:05;7.20;;;4.27;;
209;SDS011;90;48.810;9.120;2022-08-11T00:22:37;5.53;;;4.43;;
209;SDS011;90;48.810;9.120;2022-08-11T00:25:07;4.70;;;4.43;;
209;SDS011;90;48.810;9.120;2022-08-11T00:27:36;4.93;;;4.63;;
209;SDS011;90;48.810;9.120;2022-08-11T00:30:05;10.00;;;4.80;;
209;SDS011;90;48.810;9.120;2022-08-11T00:32:34;4.87;;;4.57;;
209;SDS011;90;48.810;9.120;2022-08-11T00:35:03;5.07;;;4.80;;
209;SDS011;90;48.810;9.120;2022-08-11T00:37:32;5.10;;;4.80;;
209;SDS011;90;48.810;9.120;2022-08-11T00:40:02;5.10;;;4.80;;
209;SDS011;90;48.810;9.120;2022-08-11T00:42:39;7.00;;;5.10;;
209;SDS011;90;48.810;9.120;2022-08-11T00:45:17;5.97;;;4.33;;
209;SDS011;90;48.810;9.120;2022-08-11T00:47:55;6.90;;;5.13;;
209;SDS011;90;48.810;9.120;2022-08-11T00:50:34;4.80;;;4.50;;
209;SDS011;90;48.810;9.120;2022-08-11T00:53:11;5.50;;;5.20;;
209;SDS011;90;48.810;9.120;2022-08-11T00:56:16;5.30;;;4.83;;
209;SDS011;90;48.810;9.120;2022-08-11T01:02:14;5.43;;;4.60;;
209;SDS011;90;48.810;9.120;2022-08-11T01:08:06;6.20;;;4.77;;
209;SDS011;90;48.810;9.120;2022-08-11T01:20:30;5.80;;;5.10;;
209;SDS011;90;48.810;9.120;2022-08-11T01:26:50;5.20;;;4.90;;
209;SDS011;90;48.810;9.120;2022-08-11T01:29:46;5.53;;;4.37;;
209;SDS011;90;48.810;9.120;2022-08-11T01:32:44;5.63;;;4.73;;
209;SDS011;90;48.810;9.120;2022-08-11T01:35:51;5.00;;;4.63;;
209;SDS011;90;48.810;9.120;2022-08-11T01:38:59;4.53;;;4.23;;
209;SDS011;90;48.810;9.120;2022-08-11T01:45:05;4.80;;;4.50;;
209;SDS011;90;48.810;9.120;2022-08-11T01:47:41;4.80;;;4.53;;
209;SDS011;90;48.810;9.120;2022-08-11T01:50:20;5.60;;;4.90;;
209;SDS011;90;48.810;9.120;2022-08-11T01:53:07;10.23;;;5.07;;
209;SDS011;90;48.810;9.120;2022-08-11T01:55:42;5.93;;;5.70;;
209;SDS011;90;48.810;9.120;2022-08-11T01:58:22;7.20;;;4.43;;
209;SDS011;90;48.810;9.120;2022-08-11T02:00:59;4.87;;;4.57;;
209;SDS011;90;48.810;9.120;2022-08-11T02:03:38;4.93;;;4.07;;
209;SDS011;90;48.810;9.120;2022-08-11T02:06:12;5.00;;;4.70;;
209;SDS011;90;48.810;9.120;2022-08-11T02:09:07;4.63;;;4.33;;
209;SDS011;90;48.810;9.120;2022-08-11T02:11:41;8.45;;;4.75;;
209;SDS011;90;48.810;9.120;2022-08-11T02:14:16;5.50;;;5.20;;
209;SDS011;90;48.810;9.120;2022-08-11T02:19:41;5.73;;;5.30;;
209;SDS011;90;48.810;9.120;2022-08-11T02:22:39;6.30;;;5.07;;
209;SDS011;90;48.810;9.120;2022-08-11T02:25:35;8.80;;;4.97;;
209;SDS011;90;48.810;9.120;2022-08-11T02:28:09;5.77;;;5.10;;
209;SDS011;90;48.810;9.120;2022-08-11T02:30:45;6.40;;;5.20;;
209;SDS011;90;48.810;9.120;2022-08-11T02:33:39;6.10;;;5.80;;
209;SDS011;90;48.810;9.120;2022-08-11T02:36:10;5.97;;;5.43;;
209;SDS011;90;48.810;9.120;2022-08-11T02:38:46;5.90;;;5.60;;
209;SDS011;90;48.810;9.120;2022-08-11T02:41:22;6.80;;;5.30;;
209;SDS011;90;48.810;9.120;2022-08-11T02:44:19;5.20;;;4.93;;
209;SDS011;90;48.810;9.120;2022-08-11T02:47:02;7.77;;;5.60;;
209;SDS011;90;48.810;9.120;2022-08-11T02:49:39;5.70;;;5.50;;
209;SDS011;90;48.810;9.120;2022-08-11T02:52:29;5.67;;;5.37;;
209;SDS011;90;48.810;9.120;2022-08-11T02:55:06;5.87;;;5.50;;
209;SDS011;90;48.810;9.120;2022-08-11T02:57:52;6.50;;;5.20;;
209;SDS011;90;48.810;9.120;2022-08-11T03:00:24;6.53;;;4.78;;
209;SDS011;90;48.810;9.120;2022-08-11T03:03:06;8.73;;;5.40;;
209;SDS011;90;48.810;9.120;2022-08-11T03:05:50;7.87;;;6.00;;
209;SDS011;90;48.810;9.120;2022-08-11T03:08:30;6.50;;;5.40;;
209;SDS011;90;48.810;9.120;2022-08-11T03:11:14;5.33;;;5.03;;
209;SDS011;90;48.810;9.120;2022-08-11T03:14:11;5.67;;;4.93;;
209;SDS011;90;48.810;9.120;2022-08-11T03:17:03;5.40;;;5.10;;
209;SDS011;90;48.810;9.120;2022-08-11T03:19:45;6.93;;;5.53;;
209;SDS011;90;48.810;9.120;2022-08-11T03:22:21;6.33;;;4.90;;
209;SDS011;90;48.810;9.120;2022-08-11T03:24:56;6.00;;;5.00;;
209;SDS011;90;48.810;9.120;2022-08-11T03:27:29;5.73;;;4.80;;
209;SDS011;90;48.810;9.120;2022-08-11T03:30:09;5.77;;;5.47;;
209;SDS011;90;48.810;9.120;2022-08-11T03:32:45;5.60;;;5.30;;
209;SDS011;90;48.810;9.120;2022-08-11T03:36:02;5.23;;;4.93;;
209;SDS011;90;48.810;9.120;2022-08-11T03:38:43;5.83;;;5.03;;
209;SDS011;90;48.810;9.120;2022-08-11T03:41:22;5.10;;;4.80;;
209;SDS011;90;48.810;9.120;2022-08-11T03:44:11;5.40;;;5.10;;
209;SDS011;90;48.810;9.120;2022-08-11T03:46:58;7.10;;;5.20;;
209;SDS011;90;48.810;9.120;2022-08-11T03:49:53;6.23;;;5.40;;
209;SDS011;90;48.810;9.120;2022-08-11T03:52:46;5.23;;;4.93;;
209;SDS011;90;48.810;9.120;2022-08-11T03:55:22;5.47;;;5.17;;
209;SDS011;90;48.810;9.120;2022-08-11T04:01:37;6.85;;;5.50;;
209;SDS011;90;48.810;9.120;2022-08-11T04:11:10;6.13;;;5.43;;
209;SDS011;90;48.810;9.120;2022-08-11T04:17:19;7.07;;;5.60;;
209;SDS011;90;48.810;9.120;2022-08-11T04:29:28;9.77;;;6.13;;
209;SDS011;90;48.810;9.120;2022-08-11T04:32:13;5.20;;;4.90;;
209;SDS011;90;48.810;9.120;2022-08-11T04:35:15;5.50;;;5.20;;
209;SDS011;90;48.810;9.120;2022-08-11T04:50:54;8.37;;;5.20;;
209;SDS011;90;48.810;9.120;2022-08-11T04:53:51;5.97;;;5.10;;
209;SDS011;90;48.810;9.120;2022-08-11T04:56:44;5.63;;;5.33;;
209;SDS011;90;48.810;9.120;2022-08-11T04:59:39;5.97;;;5.43;;
209;SDS011;90;48.810;9.120;2022-08-11T05:05:44;6.07;;;5.77;;
209;SDS011;90;48.810;9.120;2022-08-11T05:08:44;5.77;;;5.47;;
209;SDS011;90;48.810;9.120;2022-08-11T05:11:34;7.83;;;5.33;;
209;SDS011;90;48.810;9.120;2022-08-11T05:14:26;7.70;;;5.67;;
209;SDS011;90;48.810;9.120;2022-08-11T05:17:14;5.43;;;5.13;;
209;SDS011;90;48.810;9.120;2022-08-11T05:20:07;11.73;;;6.20;;
209;SDS011;90;48.810;9.120;2022-08-11T05:22:53;5.80;;;5.50;;
209;SDS011;90;48.810;9.120;2022-08-11T05:25:38;7.20;;;5.40;;
209;SDS011;90;48.810;9.120;2022-08-11T05:28:30;6.60;;;6.20;;
209;SDS011;90;48.810;9.120;2022-08-11T05:31:18;7.90;;;5.33;;
209;SDS011;90;48.810;9.120;2022-08-11T05:34:08;6.10;;;5.87;;
209;SDS011;90;48.810;9.120;2022-08-11T05:36:56;9.60;;;5.90;;
209;SDS011;90;48.810;9.120;2022-08-11T05:39:30;12.50;;;6.20;;
209;SDS011;90;48.810;9.120;2022-08-11T05:42:22;6.37;;;5.97;;
209;SDS011;90;48.810;9.120;2022-08-11T05:45:10;7.30;;;5.50;;
209;SDS011;90;48.810;9.120;2022-08-11T05:47:58;6.67;;;5.50;;
209;SDS011;90;48.810;9.120;2022-08-11T05:50:48;9.43;;;6.30;;
209;SDS011;90;48.810;9.120;2022-08-11T05:53:34;8.37;;;6.60;;
209;SDS011;90;48.810;9.120;2022-08-11T05:56:28;6.63;;;5.87;;
209;SDS011;90;48.810;9.120;2022-08-11T05:58:56;8.20;;;6.00;;
209;SDS011;90;48.810;9.120;2022-08-11T06:01:24;6.47;;;5.50;;
209;SDS011;90;48.810;9.120;2022-08-11T06:03:56;11.43;;;6.40;;
209;SDS011;90;48.810;9.120;2022-08-11T06:06:45;9.50;;;6.13;;
209;SDS011;90;48.810;9.120;2022-08-11T06:09:23;7.30;;;5.83;;
209;SDS011;90;48.810;9.120;2022-08-11T06:11:55;10.27;;;6.53;;
209;SDS011;90;48.810;9.120;2022-08-11T06:14:25;8.13;;;6.70;;
209;SDS011;90;48.810;9.120;2022-08-11T06:16:54;7.63;;;6.67;;
209;SDS011;90;48.810;9.120;2022-08-11T06:19:31;10.93;;;6.53;;
209;SDS011;90;48.810;9.120;2022-08-11T06:22:00;12.83;;;7.13;;
209;SDS011;90;48.810;9.120;2022-08-11T06:24:29;7.93;;;6.53;;
209;SDS011;90;48.810;9.120;2022-08-11T06:26:57;6.57;;;6.17;;
209;SDS011;90;48.810;9.120;2022-08-11T06:29:25;13.13;;;7.30;;
209;SDS011;90;48.810;9.120;2022-08-11T06:31:55;7.30;;;6.43;;
209;SDS011;90;48.810;9.120;2022-08-11T06:34:29;6.50;;;6.10;;
209;SDS011;90;48.810;9.120;2022-08-11T06:39:56;9.57;;;6.20;;
209;SDS011;90;48.810;9.120;2022-08-11T06:42:34;9.03;;;6.70;;
209;SDS011;90;48.810;9.120;2022-08-11T06:45:25;9.83;;;5.57;;
209;SDS011;90;48.810;9.120;2022-08-11T06:47:55;9.03;;;6.00;;
209;SDS011;90;48.810;9.120;2022-08-11T06:50:27;6.57;;;6.17;;
209;SDS011;90;48.810;9.120;2022-08-11T06:53:14;6.60;;;6.17;;
209;SDS011;90;48.810;9.120;2022-08-11T06:55:44;6.63;;;6.23;;
209;SDS011;90;48.810;9.120;2022-08-11T06:58:31;6.50;;;6.10;;
209;SDS011;90;48.810;9.120;2022-08-11T07:01:20;6.60;;;6.20;;
209;SDS011;90;48.810;9.120;2022-08-11T07:03:55;7.03;;;6.63;;
209;SDS011;90;48.810;9.120;2022-08-11T07:06:32;11.73;;;6.90;;
209;SDS011;90;48.810;9.120;2022-08-11T07:09:23;6.80;;;6.40;;
209;SDS011;90;48.810;9.120;2022-08-11T07:12:38;10.70;;;6.87;;
209;SDS011;90;48.810;9.120;2022-08-11T07:15:26;7.60;;;7.20;;
209;SDS011;90;48.810;9.120;2022-08-11T07:18:09;6.68;;;6.28;;
209;SDS011;90;48.810;9.120;2022-08-11T07:21:05;6.50;;;6.13;;
209;SDS011;90;48.810;9.120;2022-08-11T07:24:01;9.17;;;7.40;;
209;SDS011;90;48.810;9.120;2022-08-11T07:26:52;6.93;;;6.53;;
209;SDS011;90;48.810;9.120;2022-08-11T07:29:38;7.03;;;6.63;;
209;SDS011;90;48.810;9.120;2022-08-11T07:32:12;20.67;;;10.93;;
209;SDS011;90;48.810;9.120;2022-08-11T07:34:44;30.23;;;14.03;;
209;SDS011;90;48.810;9.120;2022-08-11T07:37:17;34.03;;;13.93;;
209;SDS011;90;48.810;9.120;2022-08-11T07:39:47;28.33;;;13.97;;
209;SDS011;90;48.810;9.120;2022-08-11T07:42:18;23.43;;;14.60;;
209;SDS011;90;48.810;9.120;2022-08-11T07:44:48;31.50;;;15.27;;
209;SDS011;90;48.810;9.120;2022-08-11T07:47:35;33.90;;;17.23;;
209;SDS011;90;48.810;9.120;2022-08-11T07:50:22;21.80;;;10.73;;
209;SDS011;90;48.810;9.120;2022-08-11T07:53:06;20.33;;;10.87;;
209;SDS011;90;48.810;9.120;2022-08-11T07:55:36;21.37;;;12.20;;
209;SDS011;90;48.810;9.120;2022-08-11T07:58:03;13.67;;;9.40;;
209;SDS011;90;48.810;9.120;2022-08-11T08:00:49;33.83;;;19.80;;
209;SDS011;90;48.810;9.120;2022-08-11T08:03:36;24.30;;;12.93;;
209;SDS011;90;48.810;9.120;2022-08-11T08:06:22;17.07;;;12.30;;
209;SDS011;90;48.810;9.120;2022-08-11T08:09:07;11.30;;;7.97;;
209;SDS011;90;48.810;9.120;2022-08-11T08:11:54;19.10;;;12.60;;
209;SDS011;90;48.810;9.120;2022-08-11T08:14:39;11.13;;;7.83;;
209;SDS011;90;48.810;9.120;2022-08-11T08:17:24;7.20;;;6.80;;
209;SDS011;90;48.810;9.120;2022-08-11T08:20:10;11.80;;;8.13;;
209;SDS011;90;48.810;9.120;2022-08-11T08:22:40;15.13;;;10.63;;
209;SDS011;90;48.810;9.120;2022-08-11T08:25:07;12.13;;;8.67;;
209;SDS011;90;48.810;9.120;2022-08-11T08:27:36;8.00;;;7.00;;
209;SDS011;90;48.810;9.120;2022-08-11T08:30:07;9.93;;;7.00;;
209;SDS011;90;48.810;9.120;2022-08-11T08:32:52;7.37;;;6.40;;
209;SDS011;90;48.810;9.120;2022-08-11T08:35:22;7.77;;;6.43;;
209;SDS011;90;48.810;9.120;2022-08-11T08:37:49;8.03;;;7.63;;
209;SDS011;90;48.810;9.120;2022-08-11T08:40:16;7.40;;;6.80;;
209;SDS011;90;48.810;9.120;2022-08-11T08:42:46;23.00;;;7.10;;
209;SDS011;90;48.810;9.120;2022-08-11T08:45:19;15.73;;;7.70;;
209;SDS011;90;48.810;9.120;2022-08-11T08:47:51;10.10;;;6.30;;
209;SDS011;90;48.810;9.120;2022-08-11T08:50:25;10.20;;;7.60;;
209;SDS011;90;48.810;9.120;2022-08-11T08:53:14;7.57;;;7.10;;
209;SDS011;90;48.810;9.120;2022-08-11T08:55:45;13.83;;;7.17;;
209;SDS011;90;48.810;9.120;2022-08-11T08:58:17;15.60;;;7.20;;
209;SDS011;90;48.810;9.120;2022-08-11T09:00:47;7.00;;;6.60;;
209;SDS011;90;48.810;9.120;2022-08-11T09:03:17;7.37;;;6.73;;
209;SDS011;90;48.810;9.120;2022-08-11T09:05:45;6.83;;;6.43;;
209;SDS011;90;48.810;9.120;2022-08-11T09:08:13;6.13;;;5.83;;
209;SDS011;90;48.810;9.120;2022-08-11T09:10:43;7.40;;;7.00;;
209;SDS011;90;48.810;9.120;2022-08-11T09:13:34;7.00;;;6.57;;
209;SDS011;90;48.810;9.120;2022-08-11T09:16:01;6.27;;;5.93;;
209;SDS011;90;48.810;9.120;2022-08-11T09:18:31;7.13;;;6.33;;
209;SDS011;90;48.810;9.120;2022-08-11T09:20:59;7.00;;;5.90;;
209;SDS011;90;48.810;9.120;2022-08-11T09:23:28;7.10;;;6.20;;
209;SDS011;90;48.810;9.120;2022-08-11T09:26:13;8.90;;;6.27;;
209;SDS011;90;48.810;9.120;2022-08-11T09:29:00;6.57;;;6.17;;
209;SDS011;90;48.810;9.120;2022-08-11T09:31:29;7.60;;;5.57;;
209;SDS011;90;48.810;9.120;2022-08-11T09:33:58;7.87;;;5.80;;
209;SDS011;90;48.810;9.120;2022-08-11T09:36:26;5.70;;;5.40;;
209;SDS011;90;48.810;9.120;2022-08-11T09:39:11;6.60;;;5.50;;
209;SDS011;90;48.810;9.120;2022-08-11T09:42:11;6.13;;;5.83;;
209;SDS011;90;48.810;9.120;2022-08-11T09:44:41;7.50;;;6.13;;
209;SDS011;90;48.810;9.120;2022-08-11T09:47:18;6.40;;;6.00;;
209;SDS011;90;48.810;9.120;2022-08-11T09:49:48;5.90;;;5.60;;
209;SDS011;90;48.810;9.120;2022-08-11T09:52:18;8.13;;;5.67;;
209;SDS011;90;48.810;9.120;2022-08-11T09:54:47;5.87;;;5.60;;
209;SDS011;90;48.810;9.120;2022-08-11T09:57:19;5.90;;;5.60;;
209;SDS011;90;48.810;9.120;2022-08-11T10:00:08;7.53;;;5.60;;
209;SDS011;90;48.810;9.120;2022-08-11T10:02:38;7.43;;;5.68;;
209;SDS011;90;48.810;9.120;2022-08-11T10:05:09;6.03;;;5.37;;
209;SDS011;90;48.810;9.120;2022-08-11T10:07:56;6.03;;;5.50;;
209;SDS011;90;48.810;9.120;2022-08-11T10:10:25;5.37;;;5.07;;
209;SDS011;90;48.810;9.120;2022-08-11T10:12:55;5.70;;;5.40;;
209;SDS011;90;48.810;9.120;2022-08-11T10:15:27;8.57;;;5.20;;
209;SDS011;90;48.810;9.120;2022-08-11T10:18:01;5.43;;;5.20;;
209;SDS011;90;48.810;9.120;2022-08-11T10:20:49;5.13;;;4.87;;
209;SDS011;90;48.810;9.120;2022-08-11T10:23:20;5.53;;;5.30;;
209;SDS011;90;48.810;9.120;2022-08-11T10:26:06;6.03;;;5.17;;
209;SDS011;90;48.810;9.120;2022-08-11T10:28:51;7.37;;;5.80;;
209;SDS011;90;48.810;9.120;2022-08-11T10:31:20;6.43;;;6.03;;
209;SDS011;90;48.810;9.120;2022-08-11T10:34:05;10.37;;;5.90;;
209;SDS011;90;48.810;9.120;2022-08-11T10:36:34;6.17;;;5.87;;
209;SDS011;90;48.810;9.120;2022-08-11T10:39:08;5.40;;;5.10;;
209;SDS011;90;48.810;9.120;2022-08-11T10:41:41;5.87;;;5.57;;
209;SDS011;90;48.810;9.120;2022-08-11T10:44:28;6.13;;;5.27;;
209;SDS011;90;48.810;9.120;2022-08-11T10:46:59;5.60;;;5.30;;
209;SDS011;90;48.810;9.120;2022-08-11T10:49:44;10.03;;;9.37;;
209;SDS011;90;48.810;9.120;2022-08-11T10:52:32;9.53;;;5.70;;
209;SDS011;90;48.810;9.120;2022-08-11T10:55:19;9.00;;;5.80;;
209;SDS011;90;48.810;9.120;2022-08-11T10:58:03;5.47;;;5.17;;
209;SDS011;90;48.810;9.120;2022-08-11T11:00:48;8.60;;;5.40;;
209;SDS011;90;48.810;9.120;2022-08-11T11:03:17;8.30;;;5.30;;
209;SDS011;90;48.810;9.120;2022-08-11T11:05:46;10.43;;;5.83;;
209;SDS011;90;48.810;9.120;2022-08-11T11:08:14;11.10;;;6.30;;
209;SDS011;90;48.810;9.120;2022-08-11T11:11:03;6.90;;;5.37;;
209;SDS011;90;48.810;9.120;2022-08-11T11:13:32;21.13;;;9.80;;
209;SDS011;90;48.810;9.120;2022-08-11T11:16:19;14.97;;;7.20;;
209;SDS011;90;48.810;9.120;2022-08-11T11:19:09;9.27;;;6.57;;
209;SDS011;90;48.810;9.120;2022-08-11T11:22:04;5.97;;;5.67;;
209;SDS011;90;48.810;9.120;2022-08-11T11:24:56;6.03;;;5.00;;
209;SDS011;90;48.810;9.120;2022-08-11T11:27:51;5.70;;;5.40;;
209;SDS011;90;48.810;9.120;2022-08-11T11:30:55;9.57;;;5.90;;
209;SDS011;90;48.810;9.120;2022-08-11T11:34:04;5.80;;;5.40;;
209;SDS011;90;48.810;9.120;2022-08-11T11:36:56;5.40;;;5.10;;
209;SDS011;90;48.810;9.120;2022-08-11T11:40:26;6.33;;;5.97;;
209;SDS011;90;48.810;9.120;2022-08-11T11:42:45;7.30;;;5.97;;
209;SDS011;90;48.810;9.120;2022-08-11T11:45:14;8.67;;;5.80;;
209;SDS011;90;48.810;9.120;2022-08-11T11:47:48;5.43;;;5.13;;
209;SDS011;90;48.810;9.120;2022-08-11T11:50:21;6.63;;;5.10;;
209;SDS011;90;48.810;9.120;2022-08-11T11:52:51;5.50;;;5.10;;
209;SDS011;90;48.810;9.120;2022-08-11T11:55:20;5.40;;;4.90;;
209;SDS011;90;48.810;9.120;2022-08-11T11:57:55;9.03;;;5.80;;
209;SDS011;90;48.810;9.120;2022-08-11T12:00:45;5.07;;;4.77;;
209;SDS011;90;48.810;9.120;2022-08-11T12:03:31;4.85;;;4.55;;
209;SDS011;90;48.810;9.120;2022-08-11T12:05:59;5.23;;;4.97;;
209;SDS011;90;48.810;9.120;2022-08-11T12:08:32;5.90;;;5.60;;
209;SDS011;90;48.810;9.120;2022-08-11T12:11:02;6.20;;;5.70;;
209;SDS011;90;48.810;9.120;2022-08-11T12:13:51;5.40;;;5.10;;
209;SDS011;90;48.810;9.120;2022-08-11T12:16:22;6.40;;;4.60;;
209;SDS011;90;48.810;9.120;2022-08-11T12:18:50;8.30;;;5.40;;
209;SDS011;90;48.810;9.120;2022-08-11T12:21:22;7.30;;;5.70;;
209;SDS011;90;48.810;9.120;2022-08-11T12:23:53;9.10;;;5.50;;
209;SDS011;90;48.810;9.120;2022-08-11T12:26:38;5.23;;;4.97;;
209;SDS011;90;48.810;9.120;2022-08-11T12:29:23;5.67;;;5.30;;
209;SDS011;90;48.810;9.120;2022-08-11T12:31:54;5.83;;;5.43;;
209;SDS011;90;48.810;9.120;2022-08-11T12:34:22;5.50;;;5.20;;
209;SDS011;90;48.810;9.120;2022-08-11T12:36:54;5.53;;;5.23;;
209;SDS011;90;48.810;9.120;2022-08-11T12:39:26;5.20;;;4.90;;
209;SDS011;90;48.810;9.120;2022-08-11T12:42:16;5.67;;;5.37;;
209;SDS011;90;48.810;9.120;2022-08-11T12:45:01;5.80;;;5.50;;
209;SDS011;90;48.810;9.120;2022-08-11T12:47:50;5.30;;;5.00;;
209;SDS011;90;48.810;9.120;2022-08-11T12:50:36;5.83;;;5.10;;
209;SDS011;90;48.810;9.120;2022-08-11T12:53:22;5.77;;;5.47;;
209;SDS011;90;48.810;9.120;2022-08-11T12:55:55;5.73;;;5.43;;
209;SDS011;90;48.810;9.120;2022-08-11T12:58:43;5.67;;;5.37;;
209;SDS011;90;48.810;9.120;2022-08-11T13:01:12;5.60;;;5.30;;
209;SDS011;90;48.810;9.120;2022-08-11T13:03:59;5.13;;;4.50;;
209;SDS011;90;48.810;9.120;2022-08-11T13:06:43;5.80;;;5.10;;
209;SDS011;90;48.810;9.120;2022-08-11T13:09:11;5.63;;;5.33;;
209;SDS011;90;48.810;9.120;2022-08-11T13:11:40;5.30;;;5.00;;
209;SDS011;90;48.810;9.120;2022-08-11T13:14:31;5.73;;;5.17;;
209;SDS011;90;48.810;9.120;2022-08-11T13:16:59;5.20;;;4.97;;
209;SDS011;90;48.810;9.120;2022-08-11T13:19:44;5.23;;;4.93;;
209;SDS011;90;48.810;9.120;2022-08-11T13:22:16;6.30;;;4.63;;
209;SDS011;90;48.810;9.120;2022-08-11T13:24:45;5.23;;;4.93;;
209;SDS011;90;48.810;9.120;2022-08-11T13:27:16;5.07;;;4.80;;
209;SDS011;90;48.810;9.120;2022-08-11T13:29:44;5.78;;;4.55;;
209;SDS011;90;48.810;9.120;2022-08-11T13:32:13;7.20;;;4.90;;
209;SDS011;90;48.810;9.120;2022-08-11T13:34:40;5.37;;;4.57;;
209;SDS011;90;48.810;9.120;2022-08-11T13:37:09;5.07;;;4.80;;
209;SDS011;90;48.810;9.120;2022-08-11T13:39:42;5.23;;;4.73;;
209;SDS011;90;48.810;9.120;2022-08-11T13:42:12;5.20;;;4.90;;
209;SDS011;90;48.810;9.120;2022-08-11T13:44:45;5.20;;;4.90;;
209;SDS011;90;48.810;9.120;2022-08-11T13:47:13;5.07;;;4.77;;
209;SDS011;90;48.810;9.120;2022-08-11T13:49:41;5.60;;;5.30;;
209;SDS011;90;48.810;9.120;2022-08-11T13:52:11;7.00;;;5.70;;
209;SDS011;90;48.810;9.120;2022-08-11T13:54:41;7.73;;;4.83;;
209;SDS011;90;48.810;9.120;2022-08-11T13:57:10;5.20;;;4.90;;
209;SDS011;90;48.810;9.120;2022-08-11T13:59:40;5.70;;;5.40;;
209;SDS011;90;48.810;9.120;2022-08-11T14:02:11;9.50;;;5.20;;
209;SDS011;90;48.810;9.120;2022-08-11T14:04:41;7.70;;;4.80;;
209;SDS011;90;48.810;9.120;2022-08-11T14:07:13;5.40;;;5.10;;
209;SDS011;90;48.810;9.120;2022-08-11T14:09:46;5.73;;;5.17;;
209;SDS011;90;48.810;9.120;2022-08-11T14:12:14;4.93;;;4.63;;
209;SDS011;90;48.810;9.120;2022-08-11T14:15:04;5.30;;;5.00;;
209;SDS011;90;48.810;9.120;2022-08-11T14:17:38;5.20;;;4.90;;
209;SDS011;90;48.810;9.120;2022-08-11T14:20:08;6.00;;;5.03;;
209;SDS011;90;48.810;9.120;2022-08-11T14:22:38;5.63;;;4.50;;
209;SDS011;90;48.810;9.120;2022-08-11T14:25:07;7.40;;;4.30;;
209;SDS011;90;48.810;9.120;2022-08-11T14:27:36;5.00;;;4.70;;
209;SDS011;90;48.810;9.120;2022-08-11T14:30:04;6.93;;;4.80;;
209;SDS011;90;48.810;9.120;2022-08-11T14:32:53;5.00;;;4.70;;
209;SDS011;90;48.810;9.120;2022-08-11T14:35:22;6.40;;;4.50;;
209;SDS011;90;48.810;9.120;2022-08-11T14:37:51;5.13;;;4.47;;
209;SDS011;90;48.810;9.120;2022-08-11T14:40:18;5.00;;;4.60;;
209;SDS011;90;48.810;9.120;2022-08-11T14:42:59;4.60;;;4.30;;
209;SDS011;90;48.810;9.120;2022-08-11T14:45:45;5.10;;;4.80;;
209;SDS011;90;48.810;9.120;2022-08-11T14:48:31;6.90;;;5.00;;
209;SDS011;90;48.810;9.120;2022-08-11T14:51:02;4.90;;;4.60;;
209;SDS011;90;48.810;9.120;2022-08-11T14:53:30;4.70;;;4.40;;
209;SDS011;90;48.810;9.120;2022-08-11T14:55:58;5.20;;;4.90;;
209;SDS011;90;48.810;9.120;2022-08-11T14:58:44;4.40;;;4.10;;
209;SDS011;90;48.810;9.120;2022-08-11T15:01:11;5.03;;;4.73;;
209;SDS011;90;48.810;9.120;2022-08-11T15:03:54;7.77;;;5.53;;
209;SDS011;90;48.810;9.120;2022-08-11T15:06:24;5.10;;;4.80;;
209;SDS011;90;48.810;9.120;2022-08-11T15:08:53;4.97;;;4.67;;
209;SDS011;90;48.810;9.120;2022-08-11T15:11:22;5.88;;;4.72;;
209;SDS011;90;48.810;9.120;2022-08-11T15:14:08;5.20;;;4.90;;
209;SDS011;90;48.810;9.120;2022-08-11T15:16:39;4.60;;;4.30;;
209;SDS011;90;48.810;9.120;2022-08-11T15:19:26;6.80;;;5.07;;
209;SDS011;90;48.810;9.120;2022-08-11T15:21:57;5.10;;;4.80;;
209;SDS011;90;48.810;9.120;2022-08-11T15:24:42;5.40;;;5.10;;
209;SDS011;90;48.810;9.120;2022-08-11T15:27:10;8.57;;;4.87;;
209;SDS011;90;48.810;9.120;2022-08-11T15:29:57;4.80;;;4.50;;
209;SDS011;90;48.810;9.120;2022-08-11T15:32:43;5.20;;;4.80;;
209;SDS011;90;48.810;9.120;2022-08-11T15:35:34;5.77;;;5.47;;
209;SDS011;90;48.810;9.120;2022-08-11T15:38:20;5.07;;;4.80;;
209;SDS011;90;48.810;9.120;2022-08-11T15:40:49;5.10;;;4.80;;
209;SDS011;90;48.810;9.120;2022-08-11T15:43:37;5.30;;;5.00;;
209;SDS011;90;48.810;9.120;2022-08-11T15:46:27;6.40;;;5.13;;
209;SDS011;90;48.810;9.120;2022-08-11T15:48:58;5.10;;;4.80;;
209;SDS011;90;48.810;9.120;2022-08-11T15:51:32;6.57;;;4.63;;
209;SDS011;90;48.810;9.120;2022-08-11T15:54:02;4.97;;;4.67;;
209;SDS011;90;48.810;9.120;2022-08-11T15:56:32;5.43;;;5.13;;
209;SDS011;90;48.810;9.120;2022-08-11T15:59:03;5.37;;;5.07;;
209;SDS011;90;48.810;9.120;2022-08-11T16:01:50;6.73;;;5.00;;
209;SDS011;90;48.810;9.120;2022-08-11T16:04:50;4.90;;;4.60;;
209;SDS011;90;48.810;9.120;2022-08-11T16:07:23;5.70;;;5.40;;
209;SDS011;90;48.810;9.120;2022-08-11T16:09:54;5.50;;;5.20;;
209;SDS011;90;48.810;9.120;2022-08-11T16:12:25;5.57;;;5.27;;
209;SDS011;90;48.810;9.120;2022-08-11T16:14:57;4.87;;;4.57;;
209;SDS011;90;48.810;9.120;2022-08-11T16:17:45;5.77;;;5.47;;
209;SDS011;90;48.810;9.120;2022-08-11T16:20:19;5.27;;;4.97;;
209;SDS011;90;48.810;9.120;2022-08-11T16:22:51;5.20;;;4.90;;
209;SDS011;90;48.810;9.120;2022-08-11T16:25:23;4.87;;;4.57;;
209;SDS011;90;48.810;9.120;2022-08-11T16:27:52;5.83;;;4.80;;
209;SDS011;90;48.810;9.120;2022-08-11T16:30:25;6.73;;;4.87;;
209;SDS011;90;48.810;9.120;2022-08-11T16:32:55;6.00;;;5.40;;
209;SDS011;90;48.810;9.120;2022-08-11T16:35:26;5.13;;;4.87;;
209;SDS011;90;48.810;9.120;2022-08-11T16:38:15;5.23;;;4.93;;
209;SDS011;90;48.810;9.120;2022-08-11T16:41:01;6.83;;;4.70;;
209;SDS011;90;48.810;9.120;2022-08-11T16:43:31;5.47;;;5.17;;
209;SDS011;90;48.810;9.120;2022-08-11T16:46:24;5.30;;;5.03;;
209;SDS011;90;48.810;9.120;2022-08-11T16:49:15;5.63;;;5.33;;
209;SDS011;90;48.810;9.120;2022-08-11T16:51:44;6.37;;;4.83;;
209;SDS011;90;48.810;9.120;2022-08-11T16:54:13;6.03;;;5.13;;
209;SDS011;90;48.810;9.120;2022-08-11T16:56:42;14.70;;;5.30;;
209;SDS011;90;48.810;9.120;2022-08-11T16:59:14;7.83;;;4.93;;
209;SDS011;90;48.810;9.120;2022-08-11T17:01:45;6.83;;;5.37;;
209;SDS011;90;48.810;9.120;2022-08-11T17:04:23;5.93;;;4.90;;
209;SDS011;90;48.810;9.120;2022-08-11T17:07:13;7.77;;;5.77;;
209;SDS011;90;48.810;9.120;2022-08-11T17:10:04;5.13;;;4.80;;
209;SDS011;90;48.810;9.120;2022-08-11T17:12:52;6.57;;;5.23;;
209;SDS011;90;48.810;9.120;2022-08-11T17:15:34;5.73;;;5.43;;
209;SDS011;90;48.810;9.120;2022-08-11T17:18:20;7.00;;;5.63;;
209;SDS011;90;48.810;9.120;2022-08-11T17:21:05;5.37;;;5.10;;
209;SDS011;90;48.810;9.120;2022-08-11T17:23:34;6.10;;;5.13;;
209;SDS011;90;48.810;9.120;2022-08-11T17:26:20;5.20;;;4.87;;
209;SDS011;90;48.810;9.120;2022-08-11T17:28:51;6.10;;;5.80;;
209;SDS011;90;48.810;9.120;2022-08-11T17:31:22;5.57;;;5.27;;
209;SDS011;90;48.810;9.120;2022-08-11T17:34:07;5.43;;;5.17;;
209;SDS011;90;48.810;9.120;2022-08-11T17:36:53;8.17;;;5.10;;
209;SDS011;90;48.810;9.120;2022-08-11T17:39:24;4.90;;;4.60;;
209;SDS011;90;48.810;9.120;2022-08-11T17:41:56;6.20;;;5.90;;
209;SDS011;90;48.810;9.120;2022-08-11T17:44:42;5.50;;;5.20;;
209;SDS011;90;48.810;9.120;2022-08-11T17:47:27;6.60;;;5.70;;
209;SDS011;90;48.810;9.120;2022-08-11T17:50:13;5.40;;;5.07;;
209;SDS011;90;48.810;9.120;2022-08-11T17:52:41;5.00;;;4.70;;
209;SDS011;90;48.810;9.120;2022-08-11T17:55:28;5.40;;;5.10;;
209;SDS011;90;48.810;9.120;2022-08-11T17:58:15;7.37;;;5.47;;
209;SDS011;90;48.810;9.120;2022-08-11T18:01:01;5.70;;;5.40;;
209;SDS011;90;48.810;9.120;2022-08-11T18:03:29;5.50;;;5.20;;
209;SDS011;90;48.810;9.120;2022-08-11T18:05:58;7.10;;;5.13;;
209;SDS011;90;48.810;9.120;2022-08-11T18:08:28;5.90;;;5.60;;
209;SDS011;90;48.810;9.120;2022-08-11T18:11:14;5.10;;;4.80;;
209;SDS011;90;48.810;9.120;2022-08-11T18:14:03;5.77;;;5.30;;
209;SDS011;90;48.810;9.120;2022-08-11T18:16:50;6.20;;;5.90;;
209;SDS011;90;48.810;9.120;2022-08-11T18:19:35;5.13;;;4.83;;
209;SDS011;90;48.810;9.120;2022-08-11T18:22:21;5.80;;;5.50;;
209;SDS011;90;48.810;9.120;2022-08-11T18:25:09;5.83;;;5.53;;